createdAt,value
2022-12-08T00:00:17.623Z,12.50
2022-12-08T00:03:20.831Z,9.60
2022-12-08T00:06:25.115Z,13.50
2022-12-08T00:09:34.704Z,12.10
2022-12-08T00:12:21.000Z,11.40
2022-12-08T00:20:29.878Z,9.70
2022-12-08T00:25:55.387Z,16.20
2022-12-08T00:28:38.129Z,9.80
2022-12-08T00:31:21.073Z,11.30
2022-12-08T00:34:04.563Z,9.00
2022-12-08T00:36:47.485Z,12.30
2022-12-08T00:39:30.244Z,12.40
2022-12-08T00:44:56.006Z,13.30
2022-12-08T00:47:38.872Z,9.40
2022-12-08T00:50:21.839Z,12.00
2022-12-08T00:53:04.616Z,16.00
2022-12-08T00:55:47.562Z,15.70
2022-12-08T00:58:30.346Z,16.20
2022-12-08T01:03:56.817Z,16.30
2022-12-08T01:06:39.732Z,14.20
2022-12-08T01:09:22.456Z,11.30
2022-12-08T01:14:48.785Z,10.60
2022-12-08T01:20:15.003Z,15.70
2022-12-08T01:22:57.752Z,17.60
2022-12-08T01:25:40.523Z,15.60
2022-12-08T01:28:23.235Z,12.50
2022-12-08T01:31:12.332Z,14.40
2022-12-08T01:33:55.529Z,14.40
2022-12-08T01:36:38.956Z,14.30
2022-12-08T01:39:21.769Z,21.40
2022-12-08T01:45:02.689Z,13.00
2022-12-08T01:47:49.995Z,12.70
2022-12-08T01:50:33.568Z,17.30
2022-12-08T01:53:30.627Z,16.00
2022-12-08T01:56:26.533Z,19.40
2022-12-08T01:59:10.369Z,15.70
2022-12-08T02:01:53.344Z,16.20
2022-12-08T02:04:36.367Z,18.50
2022-12-08T02:10:03.679Z,20.10
2022-12-08T02:12:48.655Z,18.70
2022-12-08T02:15:42.430Z,15.70
2022-12-08T02:18:40.024Z,17.60
2022-12-08T02:21:36.272Z,20.30
2022-12-08T02:24:40.425Z,20.60
2022-12-08T02:27:42.239Z,18.50
2022-12-08T02:30:50.329Z,16.00
2022-12-08T02:34:01.353Z,15.80
2022-12-08T02:37:06.782Z,18.40
2022-12-08T02:39:59.623Z,15.30
2022-12-08T02:42:47.984Z,12.80
2022-12-08T02:45:34.003Z,17.30
2022-12-08T02:48:17.166Z,16.00
2022-12-08T02:51:00.236Z,21.60
2022-12-08T02:53:44.508Z,21.90
2022-12-08T02:56:50.574Z,19.70
2022-12-08T02:59:49.145Z,14.50
2022-12-08T03:02:45.282Z,18.20
2022-12-08T03:05:49.693Z,13.50
2022-12-08T03:08:55.583Z,13.90
2022-12-08T03:11:48.663Z,18.00
2022-12-08T03:20:06.152Z,15.40
2022-12-08T03:22:52.803Z,16.20
2022-12-08T03:25:41.549Z,16.90
2022-12-08T03:28:25.255Z,18.00
2022-12-08T03:31:12.360Z,14.40
2022-12-08T03:33:58.675Z,18.40
2022-12-08T03:36:41.763Z,19.90
2022-12-08T03:42:07.831Z,20.50
2022-12-08T03:44:50.657Z,18.30
2022-12-08T03:50:16.486Z,17.40
2022-12-08T03:52:59.399Z,16.00
2022-12-08T03:58:24.927Z,16.40
2022-12-08T04:01:07.795Z,23.70
2022-12-08T04:03:51.057Z,18.20
2022-12-08T04:06:37.453Z,24.20
2022-12-08T04:09:20.266Z,23.20
2022-12-08T04:14:45.775Z,18.50
2022-12-08T04:17:28.589Z,25.90
2022-12-08T04:22:54.531Z,29.20
2022-12-08T04:25:37.739Z,22.30
2022-12-08T04:28:20.803Z,20.30
2022-12-08T04:31:07.732Z,24.50
2022-12-08T04:33:51.715Z,23.40
2022-12-08T04:36:34.514Z,24.00
2022-12-08T04:39:17.276Z,25.00
2022-12-08T04:44:42.862Z,26.40
2022-12-08T04:47:25.611Z,22.70
2022-12-08T04:50:09.108Z,22.00
2022-12-08T04:52:52.219Z,25.90
2022-12-08T04:55:34.980Z,24.00
2022-12-08T05:01:01.732Z,21.40
2022-12-08T05:03:44.712Z,23.40
2022-12-08T05:09:14.023Z,25.00
2022-12-08T05:14:39.507Z,28.80
2022-12-08T05:17:22.441Z,28.80
2022-12-08T05:22:49.185Z,24.70
2022-12-08T05:28:40.123Z,22.30
2022-12-08T05:31:18.529Z,25.90
2022-12-08T05:34:03.291Z,21.90
2022-12-08T05:36:46.356Z,23.40
2022-12-08T05:42:12.052Z,25.80
2022-12-08T05:44:54.875Z,24.90
2022-12-08T05:47:37.732Z,27.90
2022-12-08T05:53:03.563Z,25.30
2022-12-08T05:55:47.071Z,25.80
2022-12-08T05:58:29.840Z,22.90
2022-12-08T06:04:05.550Z,29.40
2022-12-08T06:06:49.573Z,29.20
2022-12-08T06:09:32.408Z,28.40
2022-12-08T06:14:59.148Z,28.30
2022-12-08T06:17:41.841Z,41.30
2022-12-08T06:20:24.619Z,26.70
2022-12-08T06:25:49.967Z,24.00
2022-12-08T06:28:33.377Z,32.70
2022-12-08T06:31:23.043Z,31.70
2022-12-08T06:34:06.315Z,29.80
2022-12-08T06:36:49.039Z,35.10
2022-12-08T06:39:31.860Z,34.20
2022-12-08T06:45:18.139Z,26.90
2022-12-08T06:48:02.772Z,27.50
2022-12-08T06:50:45.973Z,32.10
2022-12-08T06:53:28.854Z,25.50
2022-12-08T06:58:55.202Z,28.40
2022-12-08T07:01:37.947Z,31.40
2022-12-08T07:07:03.599Z,27.90
2022-12-08T07:12:30.271Z,36.40
2022-12-08T07:15:13.043Z,40.20
2022-12-08T07:17:59.786Z,40.70
2022-12-08T07:20:43.057Z,40.20
2022-12-08T07:23:25.847Z,32.50
2022-12-08T07:26:11.657Z,37.30
2022-12-08T07:32:37.371Z,34.00
2022-12-08T07:35:20.118Z,33.00
2022-12-08T07:40:45.603Z,29.80
2022-12-08T07:43:28.487Z,29.70
2022-12-08T07:48:57.105Z,28.10
2022-12-08T07:51:40.028Z,24.10
2022-12-08T07:54:22.895Z,25.80
2022-12-08T07:59:52.029Z,25.10
2022-12-08T08:05:17.870Z,25.80
2022-12-08T08:08:00.666Z,27.70
2022-12-08T08:10:44.172Z,23.40
2022-12-08T08:13:26.939Z,29.50
2022-12-08T08:18:53.673Z,31.50
2022-12-08T08:21:45.504Z,30.30
2022-12-08T08:24:28.880Z,35.70
2022-12-08T08:27:11.732Z,30.10
2022-12-08T08:32:37.513Z,32.40
2022-12-08T08:35:20.370Z,31.30
2022-12-08T08:40:46.476Z,33.90
2022-12-08T08:43:34.329Z,30.20
2022-12-08T08:46:20.604Z,29.70
2022-12-08T08:51:46.361Z,30.80
2022-12-08T08:54:29.941Z,32.90
2022-12-08T08:57:12.759Z,30.70
2022-12-08T09:02:38.832Z,28.90
2022-12-08T09:05:21.726Z,25.30
2022-12-08T09:10:47.661Z,22.50
2022-12-08T09:13:30.443Z,25.60
2022-12-08T09:18:56.108Z,25.50
2022-12-08T09:21:39.809Z,25.80
2022-12-08T09:24:23.280Z,25.90
2022-12-08T09:27:06.046Z,26.60
2022-12-08T09:32:31.559Z,27.60
2022-12-08T09:37:57.332Z,27.80
2022-12-08T09:40:50.817Z,26.30
2022-12-08T09:44:11.833Z,30.30
2022-12-08T09:46:56.260Z,26.70
2022-12-08T09:49:47.217Z,29.10
2022-12-08T09:52:36.580Z,26.80
2022-12-08T09:55:25.242Z,31.50
2022-12-08T09:58:34.043Z,29.40
2022-12-08T10:01:17.795Z,30.90
2022-12-08T10:04:01.665Z,29.70
2022-12-08T10:06:59.978Z,24.60
2022-12-08T10:09:50.311Z,22.90
2022-12-08T10:12:45.641Z,25.80
2022-12-08T10:15:50.515Z,27.60
2022-12-08T10:18:34.788Z,25.50
2022-12-08T10:21:22.329Z,25.20
2022-12-08T10:24:13.397Z,27.20
2022-12-08T10:26:57.998Z,29.50
2022-12-08T10:29:41.219Z,30.80
2022-12-08T10:32:25.872Z,26.70
2022-12-08T10:35:12.261Z,25.80
2022-12-08T10:38:00.648Z,29.60
2022-12-08T10:40:45.924Z,25.30
2022-12-08T10:43:29.080Z,27.20
2022-12-08T10:46:19.846Z,26.90
2022-12-08T10:49:05.561Z,30.20
2022-12-08T10:51:48.468Z,30.00
2022-12-08T10:54:38.323Z,33.40
2022-12-08T10:57:23.770Z,27.60
2022-12-08T11:00:13.666Z,27.40
2022-12-08T11:03:01.242Z,31.50
2022-12-08T11:05:46.986Z,29.40
2022-12-08T11:08:30.587Z,31.40
2022-12-08T11:11:14.147Z,25.50
2022-12-08T11:13:56.915Z,31.50
2022-12-08T11:19:27.959Z,30.50
2022-12-08T11:22:32.625Z,34.70
2022-12-08T11:25:27.098Z,31.00
2022-12-08T11:28:11.234Z,31.80
2022-12-08T11:31:20.219Z,30.70
2022-12-08T11:34:03.476Z,33.40
2022-12-08T11:36:47.303Z,33.40
2022-12-08T11:39:35.445Z,33.30
2022-12-08T11:42:22.030Z,31.90
2022-12-08T11:45:17.336Z,32.90
2022-12-08T11:48:32.201Z,34.90
2022-12-08T11:51:32.690Z,32.60
2022-12-08T11:54:30.703Z,30.20
2022-12-08T11:57:16.642Z,33.70
2022-12-08T12:00:01.979Z,36.50
2022-12-08T12:03:05.934Z,32.60
2022-12-08T12:06:46.330Z,31.10
2022-12-08T12:09:58.855Z,32.90
2022-12-08T12:12:59.946Z,33.10
2022-12-08T12:16:15.470Z,33.50
2022-12-08T12:19:12.103Z,30.80
2022-12-08T12:22:08.659Z,33.70
2022-12-08T12:24:53.107Z,32.00
2022-12-08T12:27:39.945Z,33.90
2022-12-08T12:30:28.366Z,32.50
2022-12-08T12:33:16.036Z,33.00
2022-12-08T12:36:03.586Z,29.80
2022-12-08T12:39:01.618Z,30.00
2022-12-08T12:41:55.027Z,28.80
2022-12-08T12:44:40.373Z,30.20
2022-12-08T12:48:00.578Z,27.60
2022-12-08T12:50:50.964Z,31.40
2022-12-08T12:53:36.435Z,30.60
2022-12-08T12:56:49.339Z,29.90
2022-12-08T12:59:40.222Z,27.40
2022-12-08T13:02:54.291Z,30.00
2022-12-08T13:05:49.518Z,31.80
2022-12-08T13:08:34.480Z,29.00
2022-12-08T13:11:17.491Z,26.60
2022-12-08T13:14:05.112Z,32.10
2022-12-08T13:16:55.308Z,26.60
2022-12-08T13:19:40.751Z,26.80
2022-12-08T13:22:58.167Z,28.10
2022-12-08T13:25:40.889Z,28.30
2022-12-08T13:31:50.192Z,28.30
2022-12-08T13:34:55.524Z,28.10
2022-12-08T13:37:54.362Z,25.70
2022-12-08T13:40:41.720Z,29.40
2022-12-08T13:44:56.745Z,28.80
2022-12-08T13:57:05.171Z,30.60
2022-12-08T13:59:46.861Z,31.20
2022-12-08T14:02:43.739Z,32.40
2022-12-08T14:06:11.161Z,34.00
2022-12-08T14:09:08.424Z,32.70
2022-12-08T14:12:18.068Z,29.70
2022-12-08T14:15:05.091Z,31.70
2022-12-08T14:17:53.396Z,33.30
2022-12-08T14:20:57.715Z,33.70
2022-12-08T14:23:44.164Z,35.50
2022-12-08T14:26:30.605Z,34.40
2022-12-08T14:29:31.276Z,36.00
2022-12-08T14:32:25.182Z,35.70
2022-12-08T14:35:08.123Z,36.40
2022-12-08T14:37:55.734Z,43.30
2022-12-08T14:40:41.010Z,38.40
2022-12-08T14:43:27.460Z,39.00
2022-12-08T14:46:22.014Z,41.10
2022-12-08T14:49:04.783Z,39.50
2022-12-08T14:54:31.203Z,37.50
2022-12-08T14:57:16.139Z,38.10
2022-12-08T15:00:07.976Z,36.60
2022-12-08T15:02:51.143Z,38.50
2022-12-08T15:08:16.827Z,38.60
2022-12-08T15:14:03.021Z,36.20
2022-12-08T15:16:45.794Z,39.60
2022-12-08T15:19:34.195Z,35.90
2022-12-08T15:22:22.875Z,37.00
2022-12-08T15:25:08.696Z,35.20
2022-12-08T15:27:57.070Z,36.10
2022-12-08T15:30:39.828Z,36.30
2022-12-08T15:36:05.594Z,37.60
2022-12-08T15:38:48.368Z,41.60
2022-12-08T15:44:13.828Z,37.60
2022-12-08T15:49:40.427Z,39.20
2022-12-08T15:55:07.505Z,40.20
2022-12-08T15:58:44.977Z,35.70
2022-12-08T16:00:57.229Z,38.70
2022-12-08T16:04:27.539Z,39.10
2022-12-08T16:09:49.328Z,39.70
2022-12-08T16:13:55.708Z,37.40
2022-12-08T16:16:13.934Z,41.10
2022-12-08T16:18:56.821Z,44.40
2022-12-08T16:22:23.844Z,41.70
2022-12-08T16:24:43.378Z,42.60
2022-12-08T16:28:08.285Z,42.80
2022-12-08T16:30:34.328Z,43.70
2022-12-08T16:33:17.061Z,42.30
2022-12-08T16:38:42.592Z,37.10
2022-12-08T16:44:27.200Z,44.70
2022-12-08T16:47:10.270Z,44.70
2022-12-08T16:49:53.209Z,38.50
2022-12-08T16:52:35.988Z,41.20
2022-12-08T16:58:03.635Z,38.00
2022-12-08T17:00:47.094Z,40.30
2022-12-08T17:03:30.484Z,42.10
2022-12-08T17:06:17.557Z,38.90
2022-12-08T17:09:00.371Z,41.60
2022-12-08T17:14:26.915Z,34.70
2022-12-08T17:19:52.760Z,40.90
2022-12-08T17:22:36.098Z,38.80
2022-12-08T17:25:18.904Z,35.90
2022-12-08T17:30:45.593Z,37.30
2022-12-08T17:33:28.851Z,37.90
2022-12-08T17:36:14.244Z,33.20
2022-12-08T17:38:59.934Z,34.00
2022-12-08T17:41:43.036Z,34.30
2022-12-08T17:44:25.927Z,36.10
